createdAt,value
2023-02-22T00:00:01.105Z,8.5
2023-02-22T00:01:01.108Z,8.5
2023-02-22T00:02:01.150Z,8.5
2023-02-22T00:03:01.279Z,8.5
2023-02-22T00:04:01.159Z,8.5
2023-02-22T00:05:01.449Z,8.5
2023-02-22T00:06:01.171Z,8.5
2023-02-22T00:07:01.148Z,8.5
2023-02-22T00:08:01.175Z,8.5
2023-02-22T00:09:01.181Z,8.5
2023-02-22T00:10:01.594Z,8.5
2023-02-22T00:11:00.972Z,8.5
2023-02-22T00:12:00.796Z,8.5
2023-02-22T00:13:00.804Z,8.5
2023-02-22T00:14:00.576Z,8.5
2023-02-22T00:15:00.265Z,8.5
2023-02-22T00:16:00.010Z,8.5
2023-02-22T00:17:00.068Z,8.5
2023-02-22T00:17:59.781Z,8.5
2023-02-22T00:19:01.415Z,8.5
2023-02-22T00:20:02.459Z,8.5
2023-02-22T00:21:01.142Z,8.5
2023-02-22T00:22:01.149Z,8.5
2023-02-22T00:23:01.157Z,8.5
2023-02-22T00:24:01.161Z,8.5
2023-02-22T00:25:01.152Z,8.5
2023-02-22T00:26:01.554Z,8.5
2023-02-22T00:27:01.741Z,8.5
2023-02-22T00:28:01.757Z,8.5
2023-02-22T00:29:01.747Z,8.5
2023-02-22T00:30:02.221Z,8.5
2023-02-22T00:31:01.493Z,8.5
2023-02-22T00:32:01.197Z,8.5
2023-02-22T00:33:01.126Z,8.5
2023-02-22T00:34:01.801Z,8.5
2023-02-22T00:35:01.285Z,8.4
2023-02-22T00:36:01.123Z,8.4
2023-02-22T00:37:01.130Z,8.4
2023-02-22T00:38:01.160Z,8.4
2023-02-22T00:39:01.161Z,8.4
2023-02-22T00:40:01.057Z,8.4
2023-02-22T00:41:01.156Z,8.4
2023-02-22T00:42:01.382Z,8.4
2023-02-22T00:43:01.396Z,8.4
2023-02-22T00:44:01.401Z,8.4
2023-02-22T00:45:01.212Z,8.4
2023-02-22T00:46:01.164Z,8.4
2023-02-22T00:47:01.067Z,8.4
2023-02-22T00:48:01.086Z,8.4
2023-02-22T00:49:01.056Z,8.4
2023-02-22T00:50:01.112Z,8.4
2023-02-22T00:51:01.521Z,8.4
2023-02-22T00:52:01.240Z,8.4
2023-02-22T00:53:01.261Z,8.4
2023-02-22T00:54:02.415Z,8.4
2023-02-22T00:55:02.063Z,8.4
2023-02-22T00:56:01.164Z,8.4
2023-02-22T00:57:01.154Z,8.4
2023-02-22T00:58:01.269Z,8.4
2023-02-22T00:59:01.837Z,8.4
2023-02-22T01:00:01.341Z,8.4
2023-02-22T01:01:02.060Z,8.4
2023-02-22T01:02:01.141Z,8.4
2023-02-22T01:03:01.122Z,8.4
2023-02-22T01:04:01.242Z,8.4
2023-02-22T01:05:01.789Z,8.4
2023-02-22T01:06:03.558Z,8.4
2023-02-22T01:07:01.110Z,8.4
2023-02-22T01:08:01.148Z,8.4
2023-02-22T01:09:01.348Z,8.4
2023-02-22T01:10:01.369Z,8.4
2023-02-22T01:11:06.877Z,8.4
2023-02-22T01:12:01.190Z,8.4
2023-02-22T01:13:01.351Z,8.4
2023-02-22T01:14:01.155Z,8.4
2023-02-22T01:15:01.081Z,8.4
2023-02-22T01:16:09.133Z,8.4
2023-02-22T01:17:01.137Z,8.4
2023-02-22T01:18:01.482Z,8.4
2023-02-22T01:19:01.484Z,8.4
2023-02-22T01:20:01.199Z,8.4
2023-02-22T01:21:12.809Z,8.4
2023-02-22T01:22:01.807Z,8.4
2023-02-22T01:23:01.801Z,8.4
2023-02-22T01:24:02.930Z,8.4
2023-02-22T01:25:01.524Z,8.3
2023-02-22T01:26:14.255Z,8.3
2023-02-22T01:27:02.015Z,8.3
2023-02-22T01:28:01.134Z,8.3
2023-02-22T01:29:01.048Z,8.3
2023-02-22T01:30:01.174Z,8.3
2023-02-22T01:31:17.108Z,8.4
2023-02-22T01:32:01.978Z,8.3
2023-02-22T01:33:01.136Z,8.3
2023-02-22T01:34:01.072Z,8.4
2023-02-22T01:35:01.084Z,8.3
2023-02-22T01:36:01.101Z,8.4
2023-02-22T01:37:01.101Z,8.3
2023-02-22T01:38:01.439Z,8.3
2023-02-22T01:39:01.487Z,8.3
2023-02-22T01:40:02.232Z,8.3
2023-02-22T01:41:01.144Z,8.3
2023-02-22T01:42:01.130Z,8.3
2023-02-22T01:43:01.154Z,8.3
2023-02-22T01:44:01.166Z,8.3
2023-02-22T01:45:01.148Z,8.3
2023-02-22T01:46:01.240Z,8.3
2023-02-22T01:47:01.150Z,8.3
2023-02-22T01:48:01.673Z,8.3
2023-02-22T01:49:01.073Z,8.3
2023-02-22T01:50:01.418Z,8.3
2023-02-22T01:51:01.096Z,8.3
2023-02-22T01:52:01.199Z,8.3
2023-02-22T01:53:01.092Z,8.3
2023-02-22T01:54:01.106Z,8.3
2023-02-22T01:55:01.100Z,8.3
2023-02-22T01:56:01.116Z,8.3
2023-02-22T01:57:01.502Z,8.3
2023-02-22T01:58:01.144Z,8.3
2023-02-22T01:59:01.837Z,8.3
2023-02-22T02:00:03.892Z,8.3
2023-02-22T02:01:01.513Z,8.3
2023-02-22T02:02:01.153Z,8.3
2023-02-22T02:03:01.160Z,8.3
2023-02-22T02:04:01.952Z,8.3
2023-02-22T02:05:02.068Z,8.3
2023-02-22T02:06:02.076Z,8.3
2023-02-22T02:07:01.090Z,8.3
2023-02-22T02:08:01.771Z,8.3
2023-02-22T02:09:01.095Z,8.2
2023-02-22T02:10:01.135Z,8.3
2023-02-22T02:11:01.121Z,8.3
2023-02-22T02:12:01.222Z,8.3
2023-02-22T02:13:01.950Z,8.3
2023-02-22T02:14:02.161Z,8.3
2023-02-22T02:15:01.253Z,8.3
2023-02-22T02:16:02.062Z,8.2
2023-02-22T02:17:02.578Z,8.2
2023-02-22T02:18:01.770Z,8.2
2023-02-22T02:19:01.378Z,8.2
2023-02-22T02:20:01.063Z,8.2
2023-02-22T02:21:01.785Z,8.2
2023-02-22T02:22:01.415Z,8.1
2023-02-22T02:23:01.447Z,8.2
2023-02-22T02:24:02.196Z,8.2
2023-02-22T02:25:02.178Z,8.2
2023-02-22T02:26:01.117Z,8.2
2023-02-22T02:27:01.548Z,8.2
2023-02-22T02:28:01.125Z,8.2
2023-02-22T02:29:01.118Z,8.2
2023-02-22T02:30:01.140Z,8.2
2023-02-22T02:31:01.182Z,8.2
2023-02-22T02:32:01.690Z,8.1
2023-02-22T02:33:01.275Z,8.2
2023-02-22T02:34:01.154Z,8.2
2023-02-22T02:35:01.164Z,8.1
2023-02-22T02:36:01.251Z,8.1
2023-02-22T02:37:01.625Z,8.1
2023-02-22T02:38:01.833Z,8.1
2023-02-22T02:39:01.789Z,8.1
2023-02-22T02:40:02.686Z,8.1
2023-02-22T02:41:01.821Z,8.1
2023-02-22T02:42:03.964Z,8.1
2023-02-22T02:43:02.470Z,8.1
2023-02-22T02:44:01.122Z,8.1
2023-02-22T02:45:01.045Z,8.1
2023-02-22T02:46:01.051Z,8.1
2023-02-22T02:47:01.185Z,8.1
2023-02-22T02:48:01.151Z,8.1
2023-02-22T02:49:01.792Z,8.1
2023-02-22T02:50:02.527Z,8.1
2023-02-22T02:51:01.442Z,8.1
2023-02-22T02:52:01.249Z,8.1
2023-02-22T02:53:01.972Z,8.1
2023-02-22T02:54:02.608Z,8.1
2023-02-22T02:55:01.082Z,8.1
2023-02-22T02:56:01.118Z,8.1
2023-02-22T02:57:04.682Z,8.1
2023-02-22T02:58:01.106Z,8.1
2023-02-22T02:59:01.123Z,8.1
2023-02-22T03:00:01.117Z,8.1
2023-02-22T03:01:01.120Z,8.1
2023-02-22T03:02:07.043Z,8.1
2023-02-22T03:03:01.139Z,8.1
2023-02-22T03:04:01.153Z,8.1
2023-02-22T03:05:01.136Z,8.1
2023-02-22T03:06:01.146Z,8.1
2023-02-22T03:07:10.252Z,8.1
2023-02-22T03:08:01.159Z,8.1
2023-02-22T03:09:01.872Z,8.1
2023-02-22T03:10:02.130Z,8
2023-02-22T03:11:01.198Z,8
2023-02-22T03:12:13.945Z,8
2023-02-22T03:13:04.749Z,8
2023-02-22T03:14:01.158Z,8
2023-02-22T03:15:01.860Z,8
2023-02-22T03:16:01.785Z,8
2023-02-22T03:17:15.989Z,8
2023-02-22T03:18:01.504Z,8
2023-02-22T03:19:01.134Z,8
2023-02-22T03:20:01.207Z,8
2023-02-22T03:21:01.141Z,8.1
2023-02-22T03:22:01.145Z,8
2023-02-22T03:23:01.481Z,8
2023-02-22T03:24:01.190Z,8
2023-02-22T03:25:01.197Z,8.1
2023-02-22T03:26:01.208Z,8
2023-02-22T03:27:01.212Z,8.1
2023-02-22T03:28:04.269Z,8
2023-02-22T03:29:01.907Z,8
2023-02-22T03:30:01.985Z,8
2023-02-22T03:31:01.139Z,8
2023-02-22T03:32:01.645Z,8
2023-02-22T03:33:01.122Z,8
2023-02-22T03:34:01.461Z,8
2023-02-22T03:35:01.184Z,7.9
2023-02-22T03:36:01.158Z,7.9
2023-02-22T03:37:01.150Z,7.8
2023-02-22T03:38:01.147Z,7.8
2023-02-22T03:39:01.154Z,7.8
2023-02-22T03:40:01.158Z,7.8
2023-02-22T03:41:01.172Z,7.8
2023-02-22T03:42:01.063Z,7.8
2023-02-22T03:43:01.079Z,7.8
2023-02-22T03:44:01.336Z,7.8
2023-02-22T03:45:01.417Z,7.8
2023-02-22T03:46:02.194Z,7.8
2023-02-22T03:47:01.069Z,7.8
2023-02-22T03:48:01.121Z,7.8
2023-02-22T03:49:01.133Z,7.8
2023-02-22T03:50:01.160Z,7.8
2023-02-22T03:51:01.156Z,7.8
2023-02-22T03:52:01.142Z,7.8
2023-02-22T03:53:01.530Z,7.8
2023-02-22T03:54:01.153Z,7.8
2023-02-22T03:55:01.154Z,7.8
2023-02-22T03:56:01.187Z,7.8
2023-02-22T03:57:01.234Z,7.8
2023-02-22T03:58:01.193Z,7.8
2023-02-22T03:59:01.143Z,7.7
2023-02-22T04:00:01.118Z,7.8
2023-02-22T04:01:01.078Z,7.7
2023-02-22T04:02:01.075Z,7.7
2023-02-22T04:03:01.187Z,7.7
2023-02-22T04:04:01.051Z,7.7
2023-02-22T04:05:01.990Z,7.7
2023-02-22T04:06:01.805Z,7.7
2023-02-22T04:07:01.125Z,7.7
2023-02-22T04:08:01.128Z,7.7
2023-02-22T04:09:01.147Z,7.7
2023-02-22T04:10:02.065Z,7.7
2023-02-22T04:11:00.890Z,7.7
2023-02-22T04:12:00.638Z,7.7
2023-02-22T04:13:00.359Z,7.7
2023-02-22T04:14:00.287Z,7.7
2023-02-22T04:14:59.939Z,7.7
2023-02-22T04:15:59.843Z,7.7
2023-02-22T04:16:59.637Z,7.7
2023-02-22T04:18:01.762Z,7.7
2023-02-22T04:19:02.425Z,7.7
2023-02-22T04:20:01.418Z,7.7
2023-02-22T04:21:02.120Z,7.7
2023-02-22T04:22:01.263Z,7.7
2023-02-22T04:23:01.124Z,7.7
2023-02-22T04:24:01.149Z,7.6
2023-02-22T04:25:01.059Z,7.6
2023-02-22T04:26:01.140Z,7.6
2023-02-22T04:27:01.178Z,7.6
2023-02-22T04:28:01.463Z,7.6
2023-02-22T04:29:01.246Z,7.6
2023-02-22T04:30:00.837Z,7.6
2023-02-22T04:31:01.500Z,7.6
2023-02-22T04:32:02.190Z,7.6
2023-02-22T04:33:02.656Z,7.6
2023-02-22T04:34:01.910Z,7.6
2023-02-22T04:35:01.687Z,7.6
2023-02-22T04:36:01.124Z,7.6
2023-02-22T04:37:01.055Z,7.6
2023-02-22T04:38:01.112Z,7.6
2023-02-22T04:39:01.145Z,7.6
2023-02-22T04:40:01.144Z,7.6
2023-02-22T04:41:01.161Z,7.6
2023-02-22T04:42:01.432Z,7.6
2023-02-22T04:43:07.760Z,7.6
2023-02-22T04:44:02.882Z,7.6
2023-02-22T04:45:01.372Z,7.6
2023-02-22T04:46:02.613Z,7.6
2023-02-22T04:47:01.464Z,7.6
2023-02-22T04:48:10.522Z,7.5
2023-02-22T04:49:02.688Z,7.5
2023-02-22T04:50:02.296Z,7.5
2023-02-22T04:51:01.862Z,7.5
2023-02-22T04:52:01.831Z,7.5
2023-02-22T04:53:14.290Z,7.5
2023-02-22T04:54:01.213Z,7.5
2023-02-22T04:55:01.179Z,7.5
2023-02-22T04:56:01.314Z,7.5
2023-02-22T04:57:01.519Z,7.5
2023-02-22T04:58:16.791Z,7.5
2023-02-22T04:59:01.152Z,7.5
2023-02-22T05:00:01.189Z,7.5
2023-02-22T05:01:01.198Z,7.5
2023-02-22T05:02:01.061Z,7.5
2023-02-22T05:03:01.163Z,7.5
2023-02-22T05:04:01.079Z,7.5
2023-02-22T05:05:01.121Z,7.5
2023-02-22T05:06:01.107Z,7.5
2023-02-22T05:07:01.589Z,7.5
2023-02-22T05:08:01.123Z,7.5
2023-02-22T05:09:01.142Z,7.5
2023-02-22T05:10:01.121Z,7.5
2023-02-22T05:11:01.138Z,7.5
2023-02-22T05:12:01.134Z,7.5
2023-02-22T05:13:02.694Z,7.5
2023-02-22T05:14:01.664Z,7.5
2023-02-22T05:15:01.074Z,7.5
2023-02-22T05:16:01.209Z,7.5
2023-02-22T05:17:01.167Z,7.5
2023-02-22T05:18:01.060Z,7.5
2023-02-22T05:19:01.174Z,7.5
2023-02-22T05:20:01.180Z,7.5
2023-02-22T05:21:01.466Z,7.5
2023-02-22T05:22:01.084Z,7.5
2023-02-22T05:23:01.095Z,7.5
2023-02-22T05:24:01.134Z,7.5
2023-02-22T05:25:01.095Z,7.5
2023-02-22T05:26:01.115Z,7.5
2023-02-22T05:27:03.899Z,7.5
2023-02-22T05:28:01.126Z,7.5
2023-02-22T05:29:01.139Z,7.5
2023-02-22T05:30:01.554Z,7.5
2023-02-22T05:31:01.193Z,7.5
2023-02-22T05:32:00.078Z,7.5
2023-02-22T05:32:59.814Z,7.5
2023-02-22T05:34:02.693Z,7.5
2023-02-22T05:35:02.980Z,7.5
2023-02-22T05:36:01.779Z,7.5
2023-02-22T05:37:01.079Z,7.5
2023-02-22T05:38:01.396Z,7.5
2023-02-22T05:39:01.117Z,7.5
2023-02-22T05:40:01.111Z,7.5
2023-02-22T05:41:01.121Z,7.5
2023-02-22T05:42:01.126Z,7.5
2023-02-22T05:43:01.456Z,7.5
2023-02-22T05:44:01.791Z,7.5
2023-02-22T05:45:01.127Z,7.5
2023-02-22T05:46:01.281Z,7.5
2023-02-22T05:47:02.629Z,7.6
2023-02-22T05:48:01.160Z,7.6
2023-02-22T05:49:01.431Z,7.5
2023-02-22T05:50:00.774Z,7.6
2023-02-22T05:51:00.477Z,7.5
2023-02-22T05:52:00.058Z,7.5
2023-02-22T05:52:59.755Z,7.5
2023-02-22T05:54:02.545Z,7.5
2023-02-22T05:55:01.519Z,7.5
2023-02-22T05:56:01.817Z,7.6
2023-02-22T05:57:01.354Z,7.5
2023-02-22T05:58:01.124Z,7.5
2023-02-22T05:59:01.456Z,7.5
2023-02-22T06:00:01.079Z,7.5
2023-02-22T06:01:15.079Z,7.5
2023-02-22T06:02:00.611Z,7.5
2023-02-22T06:03:00.316Z,7.5
2023-02-22T06:03:59.870Z,7.5
2023-02-22T06:05:02.877Z,7.5
2023-02-22T06:06:02.485Z,7.5
2023-02-22T06:07:01.066Z,7.5
2023-02-22T06:08:01.080Z,7.5
2023-02-22T06:09:01.113Z,7.5
2023-02-22T06:10:01.259Z,7.5
2023-02-22T06:11:01.089Z,7.5
2023-02-22T06:12:01.474Z,7.5
2023-02-22T06:13:01.099Z,7.5
2023-02-22T06:14:01.110Z,7.5
2023-02-22T06:15:01.122Z,7.4
2023-02-22T06:16:01.826Z,7.4
2023-02-22T06:17:01.984Z,7.4
2023-02-22T06:18:01.133Z,7.4
2023-02-22T06:19:00.888Z,7.4
2023-02-22T06:20:00.595Z,7.4
2023-02-22T06:21:00.229Z,7.5
2023-02-22T06:21:59.824Z,7.5
2023-02-22T06:23:01.886Z,7.5
2023-02-22T06:24:04.053Z,7.4
2023-02-22T06:25:01.680Z,7.4
2023-02-22T06:26:01.271Z,7.4
2023-02-22T06:27:01.911Z,7.4
2023-02-22T06:28:01.979Z,7.3
2023-02-22T06:29:06.318Z,7.3
2023-02-22T06:30:01.339Z,7.3
2023-02-22T06:31:02.345Z,7.3
2023-02-22T06:32:01.236Z,7.3
2023-02-22T06:33:01.121Z,7.3
2023-02-22T06:34:09.386Z,7.3
2023-02-22T06:35:01.143Z,7.3
2023-02-22T06:36:01.472Z,7.3
2023-02-22T06:37:02.255Z,7.3
2023-02-22T06:38:01.106Z,7.4
2023-02-22T06:39:13.893Z,7.4
2023-02-22T06:40:04.826Z,7.4
2023-02-22T06:41:01.092Z,7.4
2023-02-22T06:42:01.085Z,7.4
2023-02-22T06:43:01.104Z,7.3
2023-02-22T06:44:16.790Z,7.3
2023-02-22T06:45:00.815Z,7.3
2023-02-22T06:46:00.544Z,7.3
2023-02-22T06:47:00.204Z,7.3
2023-02-22T06:47:59.768Z,7.3
2023-02-22T06:49:01.592Z,7.3
2023-02-22T06:50:01.135Z,7.3
2023-02-22T06:51:01.131Z,7.3
2023-02-22T06:52:01.133Z,7.3
2023-02-22T06:53:01.484Z,7.4
2023-02-22T06:54:01.504Z,7.4
2023-02-22T06:55:02.913Z,7.4
2023-02-22T06:56:01.081Z,7.4
2023-02-22T06:57:01.099Z,7.4
2023-02-22T06:58:01.085Z,7.4
2023-02-22T06:59:02.710Z,7.4
2023-02-22T07:00:01.147Z,7.4
2023-02-22T07:01:01.575Z,7.4
2023-02-22T07:02:02.168Z,7.5
2023-02-22T07:03:01.181Z,7.5
2023-02-22T07:04:01.116Z,7.5
2023-02-22T07:05:00.827Z,7.5
2023-02-22T07:06:01.128Z,7.5
2023-02-22T07:07:01.140Z,7.5
2023-02-22T07:08:01.161Z,7.5
2023-02-22T07:09:01.060Z,7.5
2023-02-22T07:10:01.485Z,7.5
2023-02-22T07:11:01.189Z,7.5
2023-02-22T07:12:01.076Z,7.5
2023-02-22T07:13:01.086Z,7.6
2023-02-22T07:14:01.127Z,7.6
2023-02-22T07:15:01.103Z,7.6
2023-02-22T07:16:01.860Z,7.6
2023-02-22T07:17:01.403Z,7.6
2023-02-22T07:18:01.344Z,7.6
2023-02-22T07:19:01.355Z,7.6
2023-02-22T07:20:01.164Z,7.6
2023-02-22T07:21:02.670Z,7.6
2023-02-22T07:22:04.754Z,7.6
2023-02-22T07:23:01.435Z,7.6
2023-02-22T07:24:04.528Z,7.6
2023-02-22T07:25:01.784Z,7.6
2023-02-22T07:26:01.455Z,7.6
2023-02-22T07:27:01.174Z,7.6
2023-02-22T07:28:01.300Z,7.6
2023-02-22T07:29:01.134Z,7.5
2023-02-22T07:30:00.564Z,7.5
2023-02-22T07:31:00.263Z,7.5
2023-02-22T07:32:00.008Z,7.5
2023-02-22T07:32:59.824Z,7.5
2023-02-22T07:34:01.945Z,7.5
2023-02-22T07:35:02.110Z,7.5
2023-02-22T07:36:01.164Z,7.5
2023-02-22T07:37:01.115Z,7.6
2023-02-22T07:38:01.131Z,7.6
2023-02-22T07:39:01.146Z,7.6
2023-02-22T07:40:01.543Z,7.6
2023-02-22T07:41:01.110Z,7.6
2023-02-22T07:42:01.522Z,7.6
2023-02-22T07:43:01.300Z,7.6
2023-02-22T07:44:01.314Z,7.6
2023-02-22T07:45:02.181Z,7.6
2023-02-22T07:46:01.159Z,7.6
2023-02-22T07:47:01.353Z,7.6
2023-02-22T07:48:01.393Z,7.6
2023-02-22T07:49:01.567Z,7.6
2023-02-22T07:50:00.633Z,7.6
2023-02-22T07:51:00.201Z,7.7
2023-02-22T07:51:59.874Z,7.7
2023-02-22T07:52:59.498Z,7.7
2023-02-22T07:54:01.166Z,7.7
2023-02-22T07:55:02.154Z,7.7
2023-02-22T07:56:01.607Z,7.7
2023-02-22T07:57:01.575Z,7.7
2023-02-22T07:58:01.569Z,7.7
2023-02-22T07:59:01.697Z,7.6
2023-02-22T08:00:01.170Z,7.6
2023-02-22T08:01:02.656Z,7.7
2023-02-22T08:02:02.109Z,7.7
2023-02-22T08:03:01.793Z,7.7
2023-02-22T08:04:01.092Z,7.7
2023-02-22T08:05:01.704Z,7.7
2023-02-22T08:06:01.418Z,7.7
2023-02-22T08:07:02.041Z,7.8
2023-02-22T08:08:01.194Z,7.8
2023-02-22T08:09:01.128Z,7.8
2023-02-22T08:10:05.052Z,7.8
2023-02-22T08:11:01.161Z,7.8
2023-02-22T08:12:01.419Z,7.8
2023-02-22T08:13:01.446Z,7.8
2023-02-22T08:14:01.535Z,7.8
2023-02-22T08:15:07.700Z,7.8
2023-02-22T08:16:01.238Z,7.8
2023-02-22T08:17:01.025Z,7.8
2023-02-22T08:18:01.313Z,7.8
2023-02-22T08:19:01.522Z,7.8
2023-02-22T08:20:10.520Z,7.8
2023-02-22T08:21:01.247Z,7.8
2023-02-22T08:22:00.697Z,7.8
2023-02-22T08:23:00.426Z,7.8
2023-02-22T08:24:00.215Z,7.8
2023-02-22T08:25:12.558Z,7.8
2023-02-22T08:26:01.121Z,7.8
2023-02-22T08:27:01.207Z,7.8
2023-02-22T08:28:01.235Z,7.8
2023-02-22T08:29:01.138Z,7.9
2023-02-22T08:30:14.931Z,7.9
2023-02-22T08:31:01.231Z,7.9
2023-02-22T08:32:01.329Z,8
2023-02-22T08:33:01.407Z,8
2023-02-22T08:34:01.285Z,7.9
2023-02-22T08:35:17.185Z,7.9
2023-02-22T08:36:02.147Z,8
2023-02-22T08:37:01.119Z,8
2023-02-22T08:38:01.106Z,8
2023-02-22T08:39:01.184Z,8
2023-02-22T08:40:01.131Z,8
2023-02-22T08:41:01.146Z,8
2023-02-22T08:42:01.163Z,8
2023-02-22T08:43:01.157Z,8
2023-02-22T08:44:01.156Z,8
2023-02-22T08:45:01.167Z,8
2023-02-22T08:46:01.615Z,8
2023-02-22T08:47:01.263Z,8
2023-02-22T08:48:02.649Z,8
2023-02-22T08:49:02.133Z,8
2023-02-22T08:50:01.322Z,8
2023-02-22T08:51:01.088Z,8
2023-02-22T08:52:01.075Z,8
2023-02-22T08:53:01.213Z,8
2023-02-22T08:54:01.101Z,8
2023-02-22T08:55:01.113Z,8.1
2023-02-22T08:56:01.193Z,8.1
2023-02-22T08:57:01.593Z,8.1
2023-02-22T08:58:01.253Z,8.1
2023-02-22T08:59:01.156Z,8
2023-02-22T09:00:01.372Z,8.1
2023-02-22T09:01:01.171Z,8.1
2023-02-22T09:02:01.212Z,8.1
2023-02-22T09:03:01.240Z,8.1
2023-02-22T09:04:01.275Z,8.1
2023-02-22T09:05:00.959Z,8.1
2023-02-22T09:06:01.093Z,8.1
2023-02-22T09:07:01.070Z,8.2
2023-02-22T09:08:01.092Z,8.2
2023-02-22T09:09:01.095Z,8.2
2023-02-22T09:10:01.109Z,8.3
2023-02-22T09:11:01.503Z,8.3
2023-02-22T09:12:01.530Z,8.3
2023-02-22T09:13:02.057Z,8.3
2023-02-22T09:14:01.077Z,8.3
2023-02-22T09:15:01.170Z,8.3
2023-02-22T09:16:01.173Z,8.3
2023-02-22T09:17:03.984Z,8.4
2023-02-22T09:18:01.653Z,8.4
2023-02-22T09:19:01.673Z,8.4
2023-02-22T09:20:01.380Z,8.5
2023-02-22T09:21:01.055Z,8.5
2023-02-22T09:22:01.083Z,8.5
2023-02-22T09:23:01.074Z,8.5
2023-02-22T09:24:01.085Z,8.4
2023-02-22T09:25:11.197Z,8.4
2023-02-22T09:26:01.533Z,8.4
2023-02-22T09:27:01.485Z,8.5
2023-02-22T09:28:01.107Z,8.5
2023-02-22T09:29:01.112Z,8.5
2023-02-22T09:30:01.125Z,8.5
2023-02-22T09:31:01.134Z,8.5
2023-02-22T09:32:01.303Z,8.5
2023-02-22T09:33:01.351Z,8.5
2023-02-22T09:34:03.949Z,8.5
2023-02-22T09:35:02.513Z,8.5
2023-02-22T09:36:01.458Z,8.5
2023-02-22T09:37:02.089Z,8.5
2023-02-22T09:38:02.187Z,8.6
2023-02-22T09:39:01.078Z,8.5
2023-02-22T09:40:01.248Z,8.5
2023-02-22T09:41:01.092Z,8.6
2023-02-22T09:42:01.105Z,8.6
2023-02-22T09:43:01.109Z,8.6
2023-02-22T09:44:01.070Z,8.6
2023-02-22T09:45:00.803Z,8.6
2023-02-22T09:46:00.643Z,8.6
2023-02-22T09:47:00.308Z,8.6
2023-02-22T09:48:05.278Z,8.6
2023-02-22T09:49:02.990Z,8.6
2023-02-22T09:50:01.169Z,8.6
2023-02-22T09:51:01.318Z,8.6
2023-02-22T09:52:01.081Z,8.6
2023-02-22T09:53:01.065Z,8.6
2023-02-22T09:54:01.085Z,8.6
2023-02-22T09:55:01.178Z,8.6
2023-02-22T09:56:02.374Z,8.6
2023-02-22T09:57:01.740Z,8.6
2023-02-22T09:58:03.149Z,8.6
2023-02-22T09:59:01.492Z,8.6
2023-02-22T10:00:01.150Z,8.6
2023-02-22T10:01:02.085Z,8.6
2023-02-22T10:02:01.227Z,8.7
2023-02-22T10:03:01.927Z,8.7
2023-02-22T10:04:01.397Z,8.7
2023-02-22T10:05:00.655Z,8.7
2023-02-22T10:06:03.403Z,8.7
2023-02-22T10:07:01.159Z,8.8
2023-02-22T10:08:01.170Z,8.8
2023-02-22T10:09:01.059Z,8.8
2023-02-22T10:10:01.080Z,8.8
2023-02-22T10:11:05.197Z,8.8
2023-02-22T10:12:01.879Z,8.8
2023-02-22T10:13:01.911Z,8.8
2023-02-22T10:14:04.159Z,8.8
2023-02-22T10:15:01.049Z,8.8
2023-02-22T10:16:09.212Z,8.8
2023-02-22T10:17:01.919Z,8.8
2023-02-22T10:18:01.156Z,8.8
2023-02-22T10:19:01.136Z,8.8
2023-02-22T10:20:01.374Z,8.8
2023-02-22T10:21:12.372Z,8.8
2023-02-22T10:22:01.150Z,8.8
2023-02-22T10:23:01.163Z,8.8
2023-02-22T10:24:01.157Z,8.8
2023-02-22T10:25:00.857Z,8.8
2023-02-22T10:26:14.651Z,8.8
2023-02-22T10:27:01.074Z,8.8
2023-02-22T10:28:01.061Z,8.8
2023-02-22T10:29:01.459Z,8.8
2023-02-22T10:30:05.595Z,8.8
2023-02-22T10:31:01.396Z,8.8
2023-02-22T10:32:01.244Z,8.8
2023-02-22T10:33:02.021Z,8.8
2023-02-22T10:34:01.131Z,8.8
2023-02-22T10:35:01.130Z,8.8
2023-02-22T10:36:00.779Z,8.8
2023-02-22T10:37:00.693Z,8.9
2023-02-22T10:38:00.340Z,9
2023-02-22T10:39:00.015Z,9
2023-02-22T10:39:59.722Z,9
2023-02-22T10:41:01.356Z,9
2023-02-22T10:42:02.603Z,9
2023-02-22T10:43:01.982Z,9
2023-02-22T10:44:01.791Z,9
2023-02-22T10:45:00.670Z,9
2023-02-22T10:46:00.475Z,9
2023-02-22T10:47:00.064Z,9
2023-02-22T10:47:59.651Z,9
2023-02-22T10:49:01.312Z,9
2023-02-22T10:50:01.122Z,9
2023-02-22T10:51:01.131Z,9
2023-02-22T10:52:01.486Z,9
2023-02-22T10:53:01.140Z,9.1
2023-02-22T10:54:01.135Z,9.1
2023-02-22T10:55:14.168Z,9.1
2023-02-22T10:56:01.214Z,9.1
2023-02-22T10:57:01.271Z,9.2
2023-02-22T10:58:00.952Z,9.2
2023-02-22T10:59:00.661Z,9.2
2023-02-22T11:00:00.350Z,9.3
2023-02-22T11:01:00.189Z,9.3
2023-02-22T11:01:59.893Z,9.3
2023-02-22T11:02:59.555Z,9.3
2023-02-22T11:04:01.145Z,9.3
2023-02-22T11:05:00.990Z,9.3
2023-02-22T11:06:01.122Z,9.3
2023-02-22T11:07:01.518Z,9.2
2023-02-22T11:08:01.728Z,9.2
2023-02-22T11:09:01.117Z,9.2
2023-02-22T11:10:01.047Z,9.2
2023-02-22T11:11:01.163Z,9.2
2023-02-22T11:12:01.167Z,9.1
2023-02-22T11:13:01.166Z,9.1
2023-02-22T11:14:01.994Z,9.1
2023-02-22T11:15:01.882Z,9.1
2023-02-22T11:16:01.088Z,9.1
2023-02-22T11:17:01.174Z,9.2
2023-02-22T11:18:01.910Z,9.2
2023-02-22T11:19:01.114Z,9.2
2023-02-22T11:20:01.279Z,9.2
2023-02-22T11:21:01.062Z,9.2
2023-02-22T11:22:01.500Z,9.3
2023-02-22T11:23:00.847Z,9.3
2023-02-22T11:24:01.165Z,9.3
2023-02-22T11:25:00.639Z,9.3
2023-02-22T11:26:00.335Z,9.3
2023-02-22T11:27:00.654Z,9.3
2023-02-22T11:28:01.725Z,9.3
2023-02-22T11:29:01.265Z,9.4
2023-02-22T11:30:01.588Z,9.4
2023-02-22T11:31:02.756Z,9.4
2023-02-22T11:32:01.133Z,9.4
2023-02-22T11:33:01.101Z,9.5
2023-02-22T11:34:01.437Z,9.5
2023-02-22T11:35:09.060Z,9.5
2023-02-22T11:36:02.271Z,9.5
2023-02-22T11:37:01.115Z,9.5
2023-02-22T11:38:01.506Z,9.5
2023-02-22T11:39:01.145Z,9.5
2023-02-22T11:40:01.130Z,9.4
2023-02-22T11:41:01.047Z,9.4
2023-02-22T11:42:01.137Z,9.4
2023-02-22T11:43:01.140Z,9.5
2023-02-22T11:44:01.141Z,9.5
2023-02-22T11:45:01.508Z,9.5
2023-02-22T11:46:02.317Z,9.5
2023-02-22T11:47:02.052Z,9.6
2023-02-22T11:48:01.964Z,9.6
2023-02-22T11:49:01.088Z,9.6
2023-02-22T11:50:01.120Z,9.6
2023-02-22T11:51:01.125Z,9.6
2023-02-22T11:52:05.486Z,9.6
2023-02-22T11:53:01.925Z,9.6
2023-02-22T11:54:01.786Z,9.6
2023-02-22T11:55:01.124Z,9.6
2023-02-22T11:56:01.497Z,9.6
2023-02-22T11:57:10.149Z,9.6
2023-02-22T11:58:02.572Z,9.6
2023-02-22T11:59:01.144Z,9.6
2023-02-22T12:00:01.243Z,9.6
2023-02-22T12:01:01.985Z,9.6
2023-02-22T12:02:11.336Z,9.6
2023-02-22T12:03:02.149Z,9.6
2023-02-22T12:04:01.267Z,9.6
2023-02-22T12:05:01.413Z,9.6
2023-02-22T12:06:01.198Z,9.6
2023-02-22T12:07:14.306Z,9.6
2023-02-22T12:08:13.794Z,9.5
2023-02-22T12:09:02.039Z,9.5
2023-02-22T12:10:01.432Z,9.5
2023-02-22T12:11:00.831Z,9.5
2023-02-22T12:12:16.084Z,9.5
2023-02-22T12:13:01.912Z,9.5
2023-02-22T12:14:01.183Z,9.5
2023-02-22T12:15:01.053Z,9.6
2023-02-22T12:16:01.193Z,9.5
2023-02-22T12:17:01.172Z,9.6
2023-02-22T12:18:00.636Z,9.6
2023-02-22T12:19:00.367Z,9.6
2023-02-22T12:19:59.921Z,9.6
2023-02-22T12:20:59.556Z,9.6
2023-02-22T12:22:01.139Z,9.7
2023-02-22T12:23:01.070Z,9.6
2023-02-22T12:24:01.043Z,9.6
2023-02-22T12:25:09.523Z,9.6
2023-02-22T12:26:01.535Z,9.6
2023-02-22T12:27:01.131Z,9.6
2023-02-22T12:28:02.237Z,9.6
2023-02-22T12:29:02.349Z,9.6
2023-02-22T12:30:02.052Z,9.6
2023-02-22T12:31:02.117Z,9.6
2023-02-22T12:32:01.200Z,9.7
2023-02-22T12:33:00.796Z,9.6
2023-02-22T12:34:00.637Z,9.6
2023-02-22T12:35:00.338Z,9.6
2023-02-22T12:36:00.028Z,9.6
2023-02-22T12:36:59.651Z,9.6
2023-02-22T12:38:01.474Z,9.6
2023-02-22T12:39:01.136Z,9.7
2023-02-22T12:40:00.879Z,9.7
2023-02-22T12:41:01.116Z,9.7
2023-02-22T12:42:01.122Z,9.8
2023-02-22T12:43:01.124Z,9.8
2023-02-22T12:44:01.158Z,9.8
2023-02-22T12:45:01.138Z,9.8
2023-02-22T12:46:00.887Z,9.8
2023-02-22T12:47:01.155Z,9.8
2023-02-22T12:48:01.141Z,9.8
2023-02-22T12:49:01.259Z,9.7
2023-02-22T12:50:01.164Z,9.7
2023-02-22T12:51:01.058Z,9.7
2023-02-22T12:52:09.567Z,9.7
2023-02-22T12:53:01.198Z,9.7
2023-02-22T12:54:01.126Z,9.7
2023-02-22T12:55:01.089Z,9.8
2023-02-22T12:56:01.142Z,9.7
2023-02-22T12:57:01.613Z,9.8
2023-02-22T12:58:01.162Z,9.8
2023-02-22T12:59:01.540Z,9.8
2023-02-22T13:00:01.241Z,9.8
2023-02-22T13:01:02.027Z,9.8
2023-02-22T13:02:01.436Z,9.8
2023-02-22T13:03:01.084Z,9.8
2023-02-22T13:04:11.357Z,9.9
2023-02-22T13:05:01.198Z,9.8
2023-02-22T13:06:00.949Z,9.8
2023-02-22T13:07:01.182Z,9.9
2023-02-22T13:08:01.553Z,9.8
2023-02-22T13:09:03.873Z,9.9
2023-02-22T13:10:01.084Z,9.8
2023-02-22T13:11:01.081Z,9.8
2023-02-22T13:12:01.112Z,9.8
2023-02-22T13:13:01.092Z,9.8
2023-02-22T13:14:01.107Z,9.8
2023-02-22T13:15:01.118Z,9.8
2023-02-22T13:16:01.206Z,9.8
2023-02-22T13:17:01.168Z,9.7
2023-02-22T13:18:01.889Z,9.7
2023-02-22T13:19:01.214Z,9.7
2023-02-22T13:20:01.159Z,9.7
2023-02-22T13:21:01.150Z,9.7
2023-02-22T13:22:01.172Z,9.7
2023-02-22T13:23:01.160Z,9.7
2023-02-22T13:24:01.216Z,9.8
2023-02-22T13:25:01.071Z,9.8
2023-02-22T13:26:00.772Z,9.8
2023-02-22T13:27:00.408Z,9.8
2023-02-22T13:28:00.033Z,9.8
2023-02-22T13:28:59.668Z,9.8
2023-02-22T13:30:02.182Z,9.8
2023-02-22T13:31:01.920Z,9.8
2023-02-22T13:32:01.823Z,9.8
2023-02-22T13:33:01.158Z,9.8
2023-02-22T13:34:01.137Z,9.8
2023-02-22T13:35:01.144Z,9.8
2023-02-22T13:36:01.855Z,9.8
2023-02-22T13:37:01.191Z,9.8
2023-02-22T13:38:01.524Z,9.8
2023-02-22T13:39:01.286Z,9.8
2023-02-22T13:40:02.838Z,9.8
2023-02-22T13:41:02.791Z,9.8
2023-02-22T13:42:02.444Z,9.8
2023-02-22T13:43:04.410Z,9.8
2023-02-22T13:44:01.100Z,9.8
2023-02-22T13:45:01.239Z,9.8
2023-02-22T13:46:00.884Z,9.8
2023-02-22T13:47:01.462Z,9.8
2023-02-22T13:48:02.554Z,9.8
2023-02-22T13:49:01.140Z,9.9
2023-02-22T13:49:59.924Z,9.9